createdAt,value
2022-12-31T00:01:28.172Z,0.55
2022-12-31T00:03:55.862Z,0.40
2022-12-31T00:06:26.896Z,0.40
2022-12-31T00:08:55.515Z,0.43
2022-12-31T00:11:24.100Z,0.30
2022-12-31T00:13:51.240Z,0.57
2022-12-31T00:16:27.833Z,0.52
2022-12-31T00:18:59.072Z,0.50
2022-12-31T00:21:27.143Z,0.38
2022-12-31T00:23:53.686Z,0.32
2022-12-31T00:26:22.323Z,0.35
2022-12-31T00:28:49.173Z,0.50
2022-12-31T00:31:20.473Z,0.52
2022-12-31T00:33:47.332Z,0.38
2022-12-31T00:36:16.749Z,0.40
2022-12-31T00:38:45.475Z,0.50
2022-12-31T00:41:13.156Z,0.20
2022-12-31T00:43:40.222Z,0.50
2022-12-31T00:46:08.220Z,0.28
2022-12-31T00:48:35.919Z,0.25
2022-12-31T00:51:03.983Z,0.50
2022-12-31T00:53:30.985Z,0.40
2022-12-31T00:56:05.820Z,0.50
2022-12-31T00:58:33.317Z,0.20
2022-12-31T01:01:08.883Z,0.30
2022-12-31T01:03:35.608Z,0.40
2022-12-31T01:06:02.273Z,0.38
2022-12-31T01:08:28.849Z,0.52
2022-12-31T01:11:21.227Z,0.52
2022-12-31T01:13:51.925Z,0.25
2022-12-31T01:16:23.843Z,0.37
2022-12-31T01:18:51.415Z,0.45
2022-12-31T01:21:19.224Z,0.20
2022-12-31T01:23:45.979Z,0.40
2022-12-31T01:26:15.461Z,0.38
2022-12-31T01:28:41.982Z,0.30
2022-12-31T01:31:13.853Z,0.50
2022-12-31T01:33:42.408Z,0.22
2022-12-31T01:36:14.471Z,0.20
2022-12-31T01:38:42.513Z,0.20
2022-12-31T01:41:14.284Z,0.47
2022-12-31T01:43:54.481Z,0.30
2022-12-31T01:46:28.047Z,0.30
2022-12-31T01:49:00.636Z,0.30
2022-12-31T01:51:31.013Z,0.30
2022-12-31T01:53:58.894Z,0.38
2022-12-31T01:56:26.156Z,0.30
2022-12-31T01:58:56.647Z,0.20
2022-12-31T02:01:31.210Z,0.40
2022-12-31T02:03:59.412Z,0.50
2022-12-31T02:06:46.616Z,0.55
2022-12-31T02:09:13.875Z,0.30
2022-12-31T02:11:40.409Z,0.30
2022-12-31T02:14:15.399Z,0.32
2022-12-31T02:17:00.159Z,0.30
2022-12-31T02:19:45.512Z,0.30
2022-12-31T02:22:33.268Z,0.60
2022-12-31T02:25:26.963Z,0.45
2022-12-31T02:27:53.353Z,0.40
2022-12-31T02:30:23.159Z,0.35
2022-12-31T02:33:02.902Z,0.30
2022-12-31T02:35:49.876Z,0.30
2022-12-31T02:38:32.431Z,0.50
2022-12-31T02:41:00.064Z,0.60
2022-12-31T02:43:27.063Z,0.68
2022-12-31T02:46:20.193Z,0.40
2022-12-31T02:49:01.623Z,0.50
2022-12-31T02:51:30.694Z,0.38
2022-12-31T02:54:03.123Z,0.43
2022-12-31T02:56:43.446Z,0.45
2022-12-31T02:59:37.929Z,0.45
2022-12-31T03:02:16.174Z,0.30
2022-12-31T03:04:52.748Z,0.52
2022-12-31T03:07:23.291Z,0.57
2022-12-31T03:09:50.075Z,0.50
2022-12-31T03:12:37.440Z,0.50
2022-12-31T03:15:06.586Z,0.60
2022-12-31T03:17:34.436Z,0.43
2022-12-31T03:20:19.552Z,0.47
2022-12-31T03:22:46.570Z,0.60
2022-12-31T03:25:54.387Z,0.57
2022-12-31T03:28:23.561Z,0.40
2022-12-31T03:30:53.453Z,0.75
2022-12-31T03:33:21.139Z,0.40
2022-12-31T03:35:49.048Z,0.80
2022-12-31T03:38:16.786Z,0.50
2022-12-31T03:40:49.078Z,0.45
2022-12-31T03:45:42.567Z,0.55
2022-12-31T03:48:10.593Z,0.52
2022-12-31T03:50:37.359Z,0.70
2022-12-31T03:53:04.161Z,0.63
2022-12-31T03:55:31.050Z,0.45
2022-12-31T03:57:57.642Z,0.63
2022-12-31T04:00:24.488Z,0.52
2022-12-31T04:02:51.216Z,0.50
2022-12-31T04:05:19.492Z,0.50
2022-12-31T04:07:46.402Z,0.70
2022-12-31T04:10:15.527Z,0.55
2022-12-31T04:12:42.692Z,0.55
2022-12-31T04:15:11.578Z,0.55
2022-12-31T04:17:38.141Z,1.08
2022-12-31T04:20:05.080Z,0.43
2022-12-31T04:22:31.648Z,0.40
2022-12-31T04:24:58.160Z,0.40
2022-12-31T04:27:24.686Z,0.40
2022-12-31T04:29:51.120Z,0.40
2022-12-31T04:32:17.754Z,0.40
2022-12-31T04:34:44.245Z,0.40
2022-12-31T04:37:10.760Z,0.65
2022-12-31T04:39:37.252Z,0.30
2022-12-31T04:42:03.743Z,0.68
2022-12-31T04:44:31.645Z,0.60
2022-12-31T04:46:58.297Z,0.60
2022-12-31T04:49:24.843Z,0.50
2022-12-31T04:51:51.273Z,0.43
2022-12-31T04:54:17.772Z,0.35
2022-12-31T04:56:44.291Z,0.30
2022-12-31T04:59:11.763Z,0.63
2022-12-31T05:01:39.444Z,0.45
2022-12-31T05:04:06.151Z,0.52
2022-12-31T05:06:32.793Z,0.45
2022-12-31T05:09:01.003Z,0.45
2022-12-31T05:11:27.483Z,0.50
2022-12-31T05:13:53.984Z,0.50
2022-12-31T05:16:20.541Z,0.32
2022-12-31T05:18:47.114Z,0.60
2022-12-31T05:21:20.154Z,0.30
2022-12-31T05:23:47.366Z,0.60
2022-12-31T05:26:13.841Z,0.70
2022-12-31T05:28:40.524Z,0.40
2022-12-31T05:31:07.132Z,0.60
2022-12-31T05:33:33.792Z,0.60
2022-12-31T05:36:00.456Z,0.43
2022-12-31T05:38:26.987Z,0.60
2022-12-31T05:41:19.768Z,0.60
2022-12-31T05:43:46.404Z,0.50
2022-12-31T05:46:12.924Z,0.52
2022-12-31T05:48:39.454Z,0.50
2022-12-31T05:51:06.175Z,0.65
2022-12-31T05:53:34.297Z,0.40
2022-12-31T05:56:00.960Z,0.50
2022-12-31T05:58:27.442Z,0.60
2022-12-31T06:00:54.673Z,0.50
2022-12-31T06:03:21.326Z,0.50
2022-12-31T06:05:48.126Z,0.30
2022-12-31T06:08:14.687Z,0.68
2022-12-31T06:10:41.196Z,0.50
2022-12-31T06:13:08.704Z,0.43
2022-12-31T06:15:41.908Z,0.47
2022-12-31T06:18:08.476Z,0.95
2022-12-31T06:20:38.683Z,0.57
2022-12-31T06:23:05.493Z,0.40
2022-12-31T06:25:32.224Z,0.50
2022-12-31T06:27:59.843Z,0.50
2022-12-31T06:30:26.396Z,0.50
2022-12-31T06:32:52.892Z,0.40
2022-12-31T06:35:19.365Z,0.60
2022-12-31T06:37:46.000Z,0.50
2022-12-31T06:40:13.173Z,0.60
2022-12-31T06:42:39.755Z,0.50
2022-12-31T06:45:06.965Z,0.70
2022-12-31T06:47:33.922Z,0.60
2022-12-31T06:50:00.376Z,0.90
2022-12-31T06:52:26.875Z,0.60
2022-12-31T06:54:53.718Z,0.50
2022-12-31T06:57:20.512Z,0.55
2022-12-31T06:59:47.301Z,0.60
2022-12-31T07:02:16.725Z,0.55
2022-12-31T07:05:26.607Z,0.57
2022-12-31T07:07:59.652Z,0.73
2022-12-31T07:10:31.955Z,0.60
2022-12-31T07:13:01.508Z,0.65
2022-12-31T07:15:56.051Z,0.82
2022-12-31T07:18:47.794Z,0.65
2022-12-31T07:21:16.657Z,0.60
2022-12-31T07:23:43.641Z,0.57
2022-12-31T07:26:30.607Z,0.68
2022-12-31T07:29:11.962Z,0.75
2022-12-31T07:32:03.258Z,0.57
2022-12-31T07:34:57.104Z,0.50
2022-12-31T07:37:55.427Z,0.65
2022-12-31T07:40:33.966Z,0.60
2022-12-31T07:43:03.421Z,0.60
2022-12-31T07:45:47.895Z,0.47
2022-12-31T07:48:23.479Z,0.60
2022-12-31T07:50:51.297Z,0.60
2022-12-31T07:53:18.141Z,0.52
2022-12-31T07:55:44.625Z,0.88
2022-12-31T07:58:37.364Z,0.70
2022-12-31T08:01:04.815Z,0.88
2022-12-31T08:03:34.206Z,0.60
2022-12-31T08:06:10.827Z,0.45
2022-12-31T08:08:58.877Z,0.40
2022-12-31T08:11:44.425Z,0.70
2022-12-31T08:14:13.091Z,0.40
2022-12-31T08:16:39.852Z,0.40
2022-12-31T08:19:06.988Z,0.57
2022-12-31T08:21:46.403Z,0.57
2022-12-31T08:24:18.880Z,0.52
2022-12-31T08:27:00.491Z,0.57
2022-12-31T08:30:09.011Z,0.50
2022-12-31T08:32:45.006Z,0.60
2022-12-31T08:35:14.349Z,0.55
2022-12-31T08:37:51.422Z,0.40
2022-12-31T08:40:38.322Z,0.50
2022-12-31T08:43:23.651Z,0.40
2022-12-31T08:45:52.939Z,0.63
2022-12-31T08:48:40.480Z,0.60
2022-12-31T08:51:17.287Z,0.60
2022-12-31T08:53:44.128Z,0.70
2022-12-31T08:56:26.234Z,0.50
2022-12-31T08:59:19.047Z,0.57
2022-12-31T09:02:13.590Z,0.70
2022-12-31T09:04:40.177Z,0.60
2022-12-31T09:07:09.476Z,0.50
2022-12-31T09:09:55.270Z,0.50
2022-12-31T09:12:25.052Z,0.93
2022-12-31T09:15:04.131Z,0.45
2022-12-31T09:17:46.823Z,0.60
2022-12-31T09:20:36.384Z,1.02
2022-12-31T09:23:08.874Z,0.70
2022-12-31T09:25:44.579Z,0.50
2022-12-31T09:28:16.180Z,0.60
2022-12-31T09:31:21.744Z,1.17
2022-12-31T09:34:00.183Z,0.55
2022-12-31T09:36:34.316Z,0.90
2022-12-31T09:39:16.498Z,0.75
2022-12-31T09:41:45.968Z,0.70
2022-12-31T09:44:31.107Z,0.60
2022-12-31T09:46:57.557Z,0.55
2022-12-31T09:49:51.599Z,0.40
2022-12-31T09:52:37.593Z,0.60
2022-12-31T09:55:26.952Z,0.70
2022-12-31T09:58:47.168Z,0.60
2022-12-31T10:01:50.471Z,0.75
2022-12-31T10:04:34.889Z,0.40
2022-12-31T10:07:48.781Z,0.60
2022-12-31T10:10:23.597Z,0.80
2022-12-31T10:16:01.739Z,0.38
2022-12-31T10:18:46.460Z,0.40
2022-12-31T10:22:08.396Z,0.50
2022-12-31T10:24:59.590Z,0.38
2022-12-31T10:27:54.782Z,0.30
2022-12-31T10:30:23.883Z,0.45
2022-12-31T10:33:32.223Z,0.40
2022-12-31T10:36:23.345Z,0.40
2022-12-31T10:39:22.193Z,0.50
2022-12-31T10:42:27.999Z,0.60
2022-12-31T10:45:16.126Z,0.50
2022-12-31T10:47:48.501Z,0.50
2022-12-31T10:50:52.602Z,0.50
2022-12-31T10:53:45.935Z,0.50
2022-12-31T10:56:24.495Z,0.20
2022-12-31T10:59:09.791Z,0.50
2022-12-31T11:02:07.598Z,0.40
2022-12-31T11:04:59.168Z,0.40
2022-12-31T11:07:54.661Z,0.35
2022-12-31T11:10:58.722Z,0.68
2022-12-31T11:13:57.751Z,0.50
2022-12-31T11:16:37.214Z,0.43
2022-12-31T11:19:19.052Z,0.47
2022-12-31T11:22:22.464Z,0.50
2022-12-31T11:25:20.618Z,0.43
2022-12-31T11:28:16.798Z,0.30
2022-12-31T11:31:14.671Z,0.52
2022-12-31T11:33:59.758Z,0.60
2022-12-31T11:36:42.446Z,0.57
2022-12-31T11:39:14.997Z,0.35
2022-12-31T11:42:13.188Z,0.68
2022-12-31T11:45:01.289Z,0.50
2022-12-31T11:48:27.852Z,0.28
2022-12-31T11:50:50.519Z,0.60
2022-12-31T11:53:41.307Z,0.47
2022-12-31T11:56:21.123Z,0.40
2022-12-31T11:58:51.008Z,0.40
2022-12-31T12:01:22.669Z,0.70
2022-12-31T12:03:49.490Z,0.50
2022-12-31T12:06:20.022Z,0.60
2022-12-31T12:08:47.604Z,0.40
2022-12-31T12:11:27.784Z,0.50
2022-12-31T12:13:54.270Z,0.30
2022-12-31T12:16:25.904Z,0.98
2022-12-31T12:19:18.365Z,0.30
2022-12-31T12:21:47.491Z,0.30
2022-12-31T12:24:30.773Z,0.50
2022-12-31T12:26:57.957Z,0.70
2022-12-31T12:29:29.850Z,0.52
2022-12-31T12:31:58.650Z,0.50
2022-12-31T12:34:28.139Z,0.40
2022-12-31T12:36:54.827Z,0.50
2022-12-31T12:39:26.482Z,0.47
2022-12-31T12:42:15.449Z,0.60
2022-12-31T12:44:42.774Z,0.52
2022-12-31T12:47:15.941Z,0.35
2022-12-31T12:49:46.497Z,0.45
2022-12-31T12:52:33.082Z,0.55
2022-12-31T12:55:18.158Z,0.52
2022-12-31T12:57:51.310Z,0.40
2022-12-31T13:00:31.453Z,0.30
2022-12-31T13:02:58.024Z,0.40
2022-12-31T13:05:57.513Z,0.43
2022-12-31T13:31:32.163Z,0.43
2022-12-31T13:34:04.693Z,0.40
2022-12-31T13:36:34.505Z,0.50
2022-12-31T13:39:05.787Z,0.40
2022-12-31T13:41:39.714Z,0.30
2022-12-31T13:44:27.001Z,0.38
2022-12-31T13:47:12.826Z,0.50
2022-12-31T13:50:26.859Z,0.40
2022-12-31T13:52:58.622Z,0.40
2022-12-31T13:55:41.098Z,1.05
2022-12-31T13:58:19.809Z,0.32
2022-12-31T14:00:58.662Z,1.92
2022-12-31T14:03:52.735Z,0.50
2022-12-31T14:06:32.798Z,0.30
2022-12-31T14:08:59.942Z,0.40
2022-12-31T14:12:04.436Z,0.40
2022-12-31T14:14:50.360Z,0.40
2022-12-31T14:17:33.752Z,0.30
2022-12-31T14:20:38.150Z,0.38
2022-12-31T14:23:19.777Z,0.50
2022-12-31T14:28:21.693Z,0.52
2022-12-31T14:30:53.903Z,0.50
2022-12-31T14:33:29.306Z,0.77
2022-12-31T14:36:27.750Z,0.40
2022-12-31T14:39:04.948Z,0.70
2022-12-31T14:41:56.377Z,0.77
2022-12-31T14:44:31.942Z,0.50
2022-12-31T14:47:21.525Z,0.50
2022-12-31T14:50:14.012Z,0.43
2022-12-31T14:53:08.173Z,0.40
2022-12-31T14:55:36.037Z,0.50
2022-12-31T14:58:28.353Z,0.60
2022-12-31T15:00:59.153Z,0.55
2022-12-31T15:03:31.684Z,0.63
2022-12-31T15:06:31.147Z,0.57
2022-12-31T15:09:18.768Z,0.60
2022-12-31T15:12:03.352Z,0.80
2022-12-31T15:15:07.411Z,1.00
2022-12-31T15:17:50.427Z,0.88
2022-12-31T15:20:35.427Z,0.85
2022-12-31T15:23:02.797Z,0.80
2022-12-31T15:25:40.269Z,0.90
2022-12-31T15:28:26.502Z,1.35
2022-12-31T15:30:56.002Z,0.93
2022-12-31T15:33:31.011Z,0.80
2022-12-31T15:35:58.222Z,1.02
2022-12-31T15:38:34.401Z,0.98
2022-12-31T15:41:12.216Z,1.08
2022-12-31T15:44:00.354Z,1.15
2022-12-31T15:46:31.685Z,1.73
2022-12-31T15:49:07.848Z,1.10
2022-12-31T15:51:46.237Z,2.20
2022-12-31T15:54:44.527Z,1.52
2022-12-31T15:57:34.125Z,1.75
2022-12-31T16:00:05.177Z,3.40
2022-12-31T16:02:31.824Z,2.72
2022-12-31T16:04:58.724Z,3.10
2022-12-31T16:07:28.008Z,2.85
2022-12-31T16:09:58.359Z,2.92
2022-12-31T16:12:33.043Z,2.75
2022-12-31T16:15:01.712Z,2.33
2022-12-31T16:17:31.002Z,2.20
2022-12-31T16:19:58.571Z,2.55
2022-12-31T16:22:39.654Z,3.15
2022-12-31T16:25:29.669Z,3.30
2022-12-31T16:27:55.042Z,3.15
2022-12-31T16:30:27.184Z,3.92
2022-12-31T16:32:57.877Z,4.32
2022-12-31T16:35:27.718Z,4.60
2022-12-31T16:38:21.564Z,4.55
2022-12-31T16:41:03.231Z,5.43
2022-12-31T16:43:38.424Z,5.68
2022-12-31T16:46:19.928Z,4.80
2022-12-31T16:48:54.176Z,5.00
2022-12-31T16:51:25.960Z,5.95
2022-12-31T16:53:52.594Z,6.80
2022-12-31T16:56:24.982Z,7.38
2022-12-31T16:59:00.247Z,5.30
2022-12-31T17:01:31.961Z,4.60
2022-12-31T17:04:02.210Z,5.15
2022-12-31T17:06:32.155Z,5.22
2022-12-31T17:08:59.792Z,5.43
2022-12-31T17:11:39.159Z,5.45
2022-12-31T17:14:05.626Z,5.10
2022-12-31T17:17:01.377Z,8.13
2022-12-31T17:19:45.803Z,6.82
2022-12-31T17:22:31.633Z,3.55
2022-12-31T17:25:07.372Z,2.88
2022-12-31T17:27:35.779Z,3.90
2022-12-31T17:30:28.260Z,3.83
2022-12-31T17:33:13.273Z,3.13
2022-12-31T17:35:42.475Z,2.05
2022-12-31T17:38:18.322Z,2.17
2022-12-31T17:40:51.552Z,1.77
2022-12-31T17:43:20.871Z,1.85
2022-12-31T17:45:50.310Z,1.98
2022-12-31T17:48:19.218Z,1.88
2022-12-31T17:50:51.105Z,1.52
2022-12-31T17:53:18.403Z,2.20
2022-12-31T17:55:47.136Z,2.63
2022-12-31T17:58:32.441Z,2.85
2022-12-31T18:00:59.725Z,2.38
2022-12-31T18:03:26.320Z,2.95
2022-12-31T18:05:52.908Z,2.85
2022-12-31T18:08:19.581Z,3.72
2022-12-31T18:10:46.248Z,3.65
2022-12-31T18:13:23.694Z,4.45
2022-12-31T18:15:50.468Z,2.72
2022-12-31T18:18:25.281Z,2.45
2022-12-31T18:21:02.783Z,2.58
2022-12-31T18:23:35.676Z,2.58
2022-12-31T18:26:02.215Z,2.88
2022-12-31T18:28:28.816Z,2.90
2022-12-31T18:30:55.622Z,2.92
2022-12-31T18:33:24.967Z,3.28
2022-12-31T18:36:10.064Z,4.10
2022-12-31T18:38:37.148Z,3.05
2022-12-31T18:41:04.338Z,4.15
2022-12-31T18:43:31.292Z,7.68
2022-12-31T18:45:58.240Z,5.32
2022-12-31T18:48:25.001Z,3.50
2022-12-31T18:50:51.523Z,3.78
2022-12-31T18:53:21.562Z,3.75
2022-12-31T18:55:50.480Z,3.92
2022-12-31T18:58:17.390Z,5.32
2022-12-31T19:00:44.640Z,3.55
2022-12-31T19:03:27.125Z,4.30
2022-12-31T19:05:53.788Z,4.13
2022-12-31T19:08:22.098Z,4.40
2022-12-31T19:10:50.902Z,4.85
2022-12-31T19:13:20.057Z,4.70
2022-12-31T19:15:49.234Z,4.40
2022-12-31T19:18:16.036Z,4.72
2022-12-31T19:20:42.681Z,4.38
2022-12-31T19:23:18.056Z,4.18
2022-12-31T19:25:45.912Z,4.80
2022-12-31T19:28:21.950Z,4.50
2022-12-31T19:30:48.987Z,4.90
2022-12-31T19:33:16.076Z,4.45
2022-12-31T19:35:43.545Z,4.90
2022-12-31T19:38:19.556Z,4.43
2022-12-31T19:40:46.800Z,7.97
2022-12-31T19:43:15.709Z,7.13
2022-12-31T19:45:43.880Z,6.03
2022-12-31T19:48:12.686Z,4.43
2022-12-31T19:50:42.814Z,5.10
2022-12-31T19:53:12.749Z,4.72
2022-12-31T19:55:40.242Z,4.80
2022-12-31T19:58:07.630Z,4.90
2022-12-31T20:00:34.331Z,5.18
2022-12-31T20:03:01.261Z,4.85
2022-12-31T20:05:28.060Z,5.00
2022-12-31T20:07:54.587Z,4.50
2022-12-31T20:10:21.385Z,4.50
2022-12-31T20:12:47.846Z,5.95
2022-12-31T20:15:14.487Z,5.75
2022-12-31T20:17:41.130Z,5.88
2022-12-31T20:20:11.090Z,6.18
2022-12-31T20:22:37.808Z,6.60
2022-12-31T20:25:04.847Z,6.20
2022-12-31T20:27:31.351Z,6.10
2022-12-31T20:29:57.946Z,6.30
2022-12-31T20:32:24.636Z,6.15
2022-12-31T20:34:51.309Z,6.20
2022-12-31T20:37:17.817Z,5.43
2022-12-31T20:39:44.406Z,6.40
2022-12-31T20:42:11.074Z,5.80
2022-12-31T20:44:37.564Z,5.22
2022-12-31T20:47:04.157Z,5.88
2022-12-31T20:50:09.195Z,8.95
2022-12-31T20:52:17.303Z,8.88
2022-12-31T20:54:43.864Z,7.45
2022-12-31T20:57:10.372Z,5.80
2022-12-31T20:59:36.870Z,5.55
2022-12-31T21:04:50.392Z,5.68
2022-12-31T21:07:16.974Z,5.75
2022-12-31T21:09:43.483Z,4.85
2022-12-31T21:12:48.147Z,4.90
2022-12-31T21:15:14.639Z,5.68
2022-12-31T21:17:41.098Z,5.25
2022-12-31T21:20:08.145Z,5.40
2022-12-31T21:22:34.671Z,6.07
2022-12-31T21:25:02.402Z,5.68
2022-12-31T21:27:29.465Z,5.50
2022-12-31T21:30:20.313Z,6.22
2022-12-31T21:32:42.813Z,5.32
2022-12-31T21:35:40.701Z,5.38
2022-12-31T21:38:00.826Z,5.22
2022-12-31T21:40:28.045Z,5.63
2022-12-31T21:42:54.737Z,6.10
2022-12-31T21:45:21.408Z,5.57
2022-12-31T21:48:06.375Z,5.20
2022-12-31T21:50:33.400Z,4.70
2022-12-31T21:53:00.065Z,5.15
2022-12-31T21:55:45.290Z,5.57
2022-12-31T21:58:28.112Z,4.20
2022-12-31T22:01:28.729Z,4.15
2022-12-31T22:03:55.305Z,4.28
2022-12-31T22:06:23.969Z,4.13
2022-12-31T22:08:53.109Z,4.22
2022-12-31T22:11:21.702Z,4.63
2022-12-31T22:13:48.880Z,3.67
2022-12-31T22:16:16.996Z,3.90
2022-12-31T22:18:44.193Z,3.90
2022-12-31T22:21:19.239Z,3.88
2022-12-31T22:23:48.720Z,3.47
2022-12-31T22:26:17.533Z,3.60
2022-12-31T22:28:45.612Z,3.60
2022-12-31T22:31:24.618Z,3.30
2022-12-31T22:33:51.386Z,3.25
2022-12-31T22:36:20.374Z,3.83
2022-12-31T22:38:47.934Z,4.28
2022-12-31T22:41:16.111Z,4.03
2022-12-31T22:43:46.690Z,4.60
2022-12-31T22:46:25.183Z,5.15
2022-12-31T22:48:53.213Z,4.13
2022-12-31T22:51:20.570Z,3.28
2022-12-31T22:53:47.246Z,3.72
2022-12-31T22:56:17.074Z,3.90
2022-12-31T22:58:44.168Z,4.05
2022-12-31T23:01:19.422Z,5.00
2022-12-31T23:03:47.353Z,5.68
2022-12-31T23:06:14.131Z,13.52
2022-12-31T23:08:40.973Z,28.40
2022-12-31T23:11:09.681Z,27.13
2022-12-31T23:13:58.631Z,28.42
2022-12-31T23:16:46.192Z,24.13
2022-12-31T23:19:32.178Z,44.15
2022-12-31T23:22:17.543Z,23.17
2022-12-31T23:24:44.107Z,23.52
2022-12-31T23:27:11.706Z,20.23
2022-12-31T23:29:46.033Z,16.92
2022-12-31T23:32:14.367Z,15.90
2022-12-31T23:34:40.985Z,13.27
2022-12-31T23:37:07.409Z,11.45
2022-12-31T23:39:34.018Z,11.73
2022-12-31T23:42:00.715Z,13.52
2022-12-31T23:44:28.013Z,13.05
2022-12-31T23:46:54.613Z,14.65
2022-12-31T23:49:21.349Z,16.23
2022-12-31T23:51:48.240Z,17.73
2022-12-31T23:54:15.842Z,18.92
2022-12-31T23:56:42.503Z,21.30
2022-12-31T23:59:11.385Z,20.92
